Time;durP1;ratioP1;P1;durP2;ratioP2;P2;SDS_P1;SDS_P2;PMS_P1;PMS_P2;Temp;Humidity;BMP_temperature;BMP_pressure;BME280_temperature;BME280_humidity;BME280_pressure;Samples;Min_cycle;Max_cycle;Signal;HPM_P1;HPM_P2
2021/01/15 00:00:28;;;;;;;13.37;6.10;;;-3.60;99.90;;;;;;5260958;28;20655;-83
2021/01/15 00:03:00;;;;;;;13.53;5.30;;;-3.60;99.90;;;;;;5249318;28;20664;-81
2021/01/15 00:05:31;;;;;;;11.47;5.30;;;-3.60;99.90;;;;;;5248652;28;20212;-82
2021/01/15 00:08:03;;;;;;;10.97;5.73;;;-3.60;99.90;;;;;;5249694;28;20200;-80
2021/01/15 00:10:35;;;;;;;10.70;4.73;;;-3.70;99.90;;;;;;5250682;28;20262;-79
2021/01/15 00:13:06;;;;;;;12.10;5.53;;;-3.70;99.90;;;;;;5249603;28;20234;-81
2021/01/15 00:15:38;;;;;;;9.70;5.53;;;-3.70;99.90;;;;;;5250553;28;20201;-83
2021/01/15 00:18:10;;;;;;;14.30;5.10;;;-3.70;99.90;;;;;;5252492;28;20204;-80
2021/01/15 00:20:42;;;;;;;9.17;4.90;;;-3.80;99.90;;;;;;5251577;28;20185;-81
2021/01/15 00:23:16;;;;;;;9.20;5.73;;;-3.80;99.90;;;;;;5252068;28;20204;-81
2021/01/15 00:25:48;;;;;;;9.53;5.03;;;-3.80;99.90;;;;;;5254331;28;20226;-82
2021/01/15 00:28:19;;;;;;;14.97;6.30;;;-3.80;99.90;;;;;;5254396;28;20664;-86
2021/01/15 00:30:51;;;;;;;12.50;6.33;;;-3.90;99.90;;;;;;5258446;28;20283;-83
2021/01/15 00:33:23;;;;;;;14.57;7.27;;;-3.90;99.90;;;;;;5256313;28;20224;-83
2021/01/15 00:35:54;;;;;;;16.60;6.87;;;-3.90;99.90;;;;;;5257946;28;20213;-79
2021/01/15 00:38:26;;;;;;;16.60;7.63;;;-3.90;99.90;;;;;;5258585;28;20593;-81
2021/01/15 00:41:08;;;;;;;20.33;8.23;;;-3.90;99.90;;;;;;5258681;28;20308;-82
2021/01/15 00:43:40;;;;;;;16.13;7.53;;;-3.90;99.90;;;;;;5251723;28;20204;-83
2021/01/15 00:46:31;;;;;;;21.53;9.27;;;-3.90;99.90;;;;;;5251641;28;20333;-80
2021/01/15 00:49:11;;;;;;;19.63;7.87;;;-3.90;99.90;;;;;;5251393;28;20624;-82
2021/01/15 00:51:50;;;;;;;21.10;8.07;;;-3.90;99.90;;;;;;5251248;28;20201;-79
2021/01/15 00:54:21;;;;;;;16.57;8.00;;;-3.90;99.90;;;;;;5251097;28;20327;-80
2021/01/15 00:57:00;;;;;;;20.13;8.07;;;-3.80;99.90;;;;;;5250724;28;20573;-81
2021/01/15 00:59:32;;;;;;;21.00;8.20;;;-3.80;99.90;;;;;;5250524;28;20667;-81
2021/01/15 01:02:03;;;;;;;21.50;8.73;;;-3.80;99.90;;;;;;5250264;28;20201;-80
2021/01/15 01:04:35;;;;;;;18.90;8.07;;;-3.80;99.90;;;;;;5255257;28;20196;-83
2021/01/15 01:07:06;;;;;;;22.37;8.90;;;-3.80;99.90;;;;;;5255430;28;20216;-81
2021/01/15 01:09:38;;;;;;;19.97;8.50;;;-3.80;99.90;;;;;;5254529;28;20323;-81
2021/01/15 01:12:09;;;;;;;20.70;8.77;;;-3.70;99.90;;;;;;5252358;28;20201;-83
2021/01/15 01:14:41;;;;;;;18.13;8.57;;;-3.70;99.90;;;;;;5252541;28;20229;-84
2021/01/15 01:17:12;;;;;;;22.93;8.40;;;-3.70;99.90;;;;;;5253413;28;20204;-83
2021/01/15 01:19:44;;;;;;;19.07;8.13;;;-3.60;99.90;;;;;;5253859;28;20208;-83
2021/01/15 01:22:15;;;;;;;20.87;8.93;;;-3.60;99.90;;;;;;5253444;28;20208;-83
2021/01/15 01:24:47;;;;;;;22.37;8.73;;;-3.60;99.90;;;;;;5253297;28;20200;-84
2021/01/15 01:27:18;;;;;;;24.27;9.13;;;-3.60;99.90;;;;;;5254338;28;20204;-83
2021/01/15 01:29:50;;;;;;;16.80;7.83;;;-3.60;99.90;;;;;;5252254;28;20208;-81
2021/01/15 01:32:22;;;;;;;18.57;8.20;;;-3.60;99.90;;;;;;5253576;28;20201;-81
2021/01/15 01:34:53;;;;;;;22.40;8.93;;;-3.60;99.90;;;;;;5254069;28;20216;-85
2021/01/15 01:37:25;;;;;;;18.33;8.20;;;-3.60;99.90;;;;;;5256731;28;20294;-78
2021/01/15 01:39:57;;;;;;;20.83;9.20;;;-3.50;99.90;;;;;;5259415;28;20233;-83
2021/01/15 01:42:28;;;;;;;18.93;8.93;;;-3.50;99.90;;;;;;5256393;28;20296;-83
2021/01/15 01:44:59;;;;;;;19.87;9.43;;;-3.60;99.90;;;;;;5262143;28;20215;-79
2021/01/15 01:47:31;;;;;;;17.13;8.80;;;-3.60;99.90;;;;;;5270474;28;20201;-80
2021/01/15 01:50:05;;;;;;;18.37;8.57;;;-3.60;99.90;;;;;;5271078;28;20208;-80
2021/01/15 01:52:37;;;;;;;18.83;8.70;;;-3.60;99.90;;;;;;5272255;28;20192;-81
2021/01/15 01:55:09;;;;;;;19.20;8.80;;;-3.60;99.90;;;;;;5268968;28;20268;-83
2021/01/15 01:57:41;;;;;;;15.50;8.03;;;-3.50;99.90;;;;;;5254227;28;20262;-78
2021/01/15 02:00:14;;;;;;;21.83;8.93;;;-3.50;99.90;;;;;;5257110;28;20220;-81
2021/01/15 02:02:45;;;;;;;20.80;9.53;;;-3.50;99.90;;;;;;5257458;28;20211;-83
2021/01/15 02:05:18;;;;;;;20.10;9.57;;;-3.40;99.90;;;;;;5255007;28;20557;-81
2021/01/15 02:07:50;;;;;;;19.03;9.00;;;-3.40;99.90;;;;;;5253600;28;20200;-86
2021/01/15 02:10:53;;;;;;;22.10;9.50;;;-3.40;99.90;;;;;;5239060;28;20197;-80
2021/01/15 02:13:42;;;;;;;22.23;10.03;;;-3.30;99.90;;;;;;5240170;28;20575;-83
2021/01/15 02:16:22;;;;;;;22.33;10.17;;;-3.30;99.90;;;;;;5255550;28;20625;-87
2021/01/15 02:19:16;;;;;;;24.23;10.33;;;-3.30;99.90;;;;;;5254333;28;20243;-83
2021/01/15 02:22:06;;;;;;;27.33;11.70;;;-3.30;99.90;;;;;;5254958;28;20196;-85
2021/01/15 02:24:58;;;;;;;20.27;10.07;;;-3.30;99.90;;;;;;5238380;28;20197;-83
2021/01/15 02:28:07;;;;;;;20.43;10.53;;;-3.30;99.90;;;;;;5240225;28;20204;-85
2021/01/15 02:30:41;;;;;;;22.73;11.07;;;-3.30;99.90;;;;;;5253022;28;20208;-78
2021/01/15 02:33:28;;;;;;;21.27;10.37;;;-3.30;99.90;;;;;;5240390;28;20217;-80
2021/01/15 02:36:11;;;;;;;18.67;10.33;;;-3.30;99.90;;;;;;5252066;28;20208;-80
2021/01/15 02:38:51;;;;;;;17.90;9.80;;;-3.20;99.90;;;;;;5259942;28;20239;-78
2021/01/15 02:41:26;;;;;;;24.07;11.03;;;-3.20;99.90;;;;;;5261330;28;20200;-81
2021/01/15 02:44:00;;;;;;;27.47;11.53;;;-3.30;99.90;;;;;;5241418;28;20636;-79
2021/01/15 02:46:40;;;;;;;29.93;12.27;;;-3.20;99.90;;;;;;5258915;28;20648;-81
2021/01/15 02:49:14;;;;;;;27.13;11.93;;;-3.20;99.90;;;;;;5257103;28;20200;-83
2021/01/15 02:51:46;;;;;;;26.63;11.97;;;-3.20;99.90;;;;;;5255785;28;20205;-79
2021/01/15 02:54:17;;;;;;;23.73;11.33;;;-3.30;99.90;;;;;;5260221;28;20232;-78
2021/01/15 02:56:49;;;;;;;24.53;11.47;;;-3.30;99.90;;;;;;5254881;28;20203;-80
2021/01/15 02:59:20;;;;;;;23.60;11.77;;;-3.20;99.90;;;;;;5254101;28;20200;-78
2021/01/15 03:02:05;;;;;;;23.97;11.50;;;-3.20;99.90;;;;;;5254041;28;20227;-80
2021/01/15 03:04:59;;;;;;;23.17;11.10;;;-3.20;99.90;;;;;;5252968;28;20208;-78
2021/01/15 03:07:31;;;;;;;23.17;12.03;;;-3.20;99.90;;;;;;5254396;28;20211;-80
2021/01/15 03:10:05;;;;;;;26.13;11.83;;;-3.20;99.90;;;;;;5254064;28;20206;-78
2021/01/15 03:12:40;;;;;;;24.50;12.50;;;-3.20;99.90;;;;;;5255032;28;20236;-79
2021/01/15 03:15:14;;;;;;;24.00;12.20;;;-3.10;99.90;;;;;;5252601;28;20207;-78
2021/01/15 03:17:49;;;;;;;27.17;11.33;;;-3.10;99.90;;;;;;5251117;28;20203;-77
2021/01/15 03:20:23;;;;;;;29.67;12.43;;;-3.10;99.90;;;;;;5251358;28;20322;-79
2021/01/15 03:22:55;;;;;;;25.97;12.60;;;-3.10;99.90;;;;;;5251603;28;20209;-79
2021/01/15 03:25:26;;;;;;;27.67;11.63;;;-3.10;99.90;;;;;;5251421;28;20205;-81
2021/01/15 03:27:58;;;;;;;21.73;10.50;;;-3.00;99.90;;;;;;5251737;28;20505;-80
2021/01/15 03:30:31;;;;;;;23.83;11.97;;;-3.10;99.90;;;;;;5253045;28;20207;-79
2021/01/15 03:33:04;;;;;;;27.57;12.23;;;-3.10;99.90;;;;;;5263467;28;20237;-78
2021/01/15 03:35:36;;;;;;;23.07;10.73;;;-3.10;99.90;;;;;;5252090;28;20242;-79
2021/01/15 03:38:10;;;;;;;27.73;11.83;;;-3.10;99.90;;;;;;5251518;28;20234;-78
2021/01/15 03:40:43;;;;;;;25.30;10.87;;;-3.10;99.90;;;;;;5251514;28;20216;-79
2021/01/15 03:43:19;;;;;;;23.43;11.23;;;-3.10;99.90;;;;;;5251385;28;20211;-78
2021/01/15 03:45:52;;;;;;;27.40;11.13;;;-3.10;99.90;;;;;;5251813;28;20574;-78
2021/01/15 03:48:23;;;;;;;23.83;10.90;;;-3.10;99.90;;;;;;5259296;28;20231;-78
2021/01/15 03:50:55;;;;;;;25.80;11.07;;;-3.10;99.90;;;;;;5257251;28;20273;-78
2021/01/15 03:53:27;;;;;;;25.47;10.30;;;-3.10;99.90;;;;;;5253012;28;20234;-77
2021/01/15 03:55:58;;;;;;;23.47;10.47;;;-3.10;99.90;;;;;;5259349;28;20207;-77
2021/01/15 03:58:30;;;;;;;23.83;10.53;;;-3.20;99.90;;;;;;5250750;28;20219;-79
2021/01/15 04:01:01;;;;;;;23.67;10.47;;;-3.20;99.90;;;;;;5250980;28;20566;-78
2021/01/15 04:03:33;;;;;;;25.40;10.07;;;-3.20;99.90;;;;;;5250387;28;20209;-79
2021/01/15 04:06:04;;;;;;;22.07;10.37;;;-3.30;99.90;;;;;;5251849;28;20202;-77
2021/01/15 04:08:36;;;;;;;26.93;10.20;;;-3.30;99.90;;;;;;5250488;28;20255;-78
2021/01/15 04:11:08;;;;;;;19.23;10.27;;;-3.30;99.90;;;;;;5251453;28;20197;-79
2021/01/15 04:13:39;;;;;;;23.30;11.07;;;-3.20;99.90;;;;;;5251756;28;20356;-78
2021/01/15 04:16:15;;;;;;;21.73;9.20;;;-3.20;99.90;;;;;;5251181;28;20212;-79
2021/01/15 04:18:47;;;;;;;20.10;10.33;;;-3.10;99.90;;;;;;5249804;28;20211;-80
2021/01/15 04:21:18;;;;;;;22.77;10.27;;;-3.00;99.90;;;;;;5250514;28;20311;-79
2021/01/15 04:23:50;;;;;;;22.13;11.20;;;-2.90;99.90;;;;;;5251610;28;20204;-81
2021/01/15 04:26:21;;;;;;;22.90;10.83;;;-2.90;99.90;;;;;;5249485;28;20598;-78
2021/01/15 04:28:53;;;;;;;21.80;10.43;;;-2.80;99.90;;;;;;5247757;28;20201;-79
2021/01/15 04:31:24;;;;;;;19.70;9.00;;;-2.80;99.90;;;;;;5249470;28;20197;-78
2021/01/15 04:33:56;;;;;;;21.70;10.27;;;-2.80;99.90;;;;;;5249118;28;20634;-78
2021/01/15 04:36:27;;;;;;;19.33;10.23;;;-2.80;99.90;;;;;;5249450;28;20202;-78
2021/01/15 04:38:59;;;;;;;22.33;9.37;;;-2.80;99.90;;;;;;5249278;28;20239;-78
2021/01/15 04:41:32;;;;;;;22.67;10.47;;;-2.80;99.90;;;;;;5249667;28;20204;-78
2021/01/15 04:44:04;;;;;;;20.67;9.30;;;-2.80;99.90;;;;;;5253228;28;20205;-79
2021/01/15 04:46:39;;;;;;;20.17;9.17;;;-2.80;99.90;;;;;;5249092;28;20559;-79
2021/01/15 04:49:12;;;;;;;23.13;9.73;;;-2.80;99.90;;;;;;5249898;28;20209;-77
2021/01/15 04:51:45;;;;;;;18.90;9.77;;;-2.80;99.90;;;;;;5249089;28;20538;-77
2021/01/15 04:54:21;;;;;;;18.93;9.97;;;-2.80;99.90;;;;;;5249107;28;20236;-78
2021/01/15 04:56:55;;;;;;;23.07;10.17;;;-2.80;99.90;;;;;;5249989;28;20200;-79
2021/01/15 04:59:32;;;;;;;25.97;9.97;;;-2.80;99.90;;;;;;5250401;28;20205;-82
2021/01/15 05:02:08;;;;;;;19.47;9.43;;;-2.70;99.90;;;;;;5251221;28;20301;-83
2021/01/15 05:04:40;;;;;;;20.90;9.77;;;-2.70;99.90;;;;;;5252101;28;20201;-85
2021/01/15 05:07:13;;;;;;;23.33;9.60;;;-2.70;99.90;;;;;;5254473;28;20209;-83
2021/01/15 05:09:46;;;;;;;17.47;9.13;;;-2.70;99.90;;;;;;5251451;28;20211;-78
2021/01/15 05:12:18;;;;;;;14.70;8.50;;;-2.60;99.90;;;;;;5252536;28;20296;-80
2021/01/15 05:14:50;;;;;;;19.53;9.13;;;-2.60;99.90;;;;;;5251188;28;20593;-77
2021/01/15 05:17:25;;;;;;;18.17;9.00;;;-2.60;99.90;;;;;;5251129;28;20548;-79
2021/01/15 05:19:58;;;;;;;19.73;9.20;;;-2.60;99.90;;;;;;5248788;28;20240;-78
2021/01/15 05:22:29;;;;;;;18.90;8.00;;;-2.60;99.90;;;;;;5250926;28;20232;-77
2021/01/15 05:25:01;;;;;;;19.30;9.57;;;-2.60;99.90;;;;;;5250259;28;20197;-81
2021/01/15 05:27:38;;;;;;;19.37;9.33;;;-2.50;99.90;;;;;;5252609;28;20215;-81
2021/01/15 05:30:25;;;;;;;18.47;9.07;;;-2.50;99.90;;;;;;5251647;28;20218;-81
2021/01/15 05:32:58;;;;;;;17.00;8.70;;;-2.60;99.90;;;;;;5251892;28;20210;-83
2021/01/15 05:35:42;;;;;;;16.07;8.87;;;-2.50;99.90;;;;;;5255969;28;20205;-80
2021/01/15 05:38:18;;;;;;;18.40;9.77;;;-2.60;99.90;;;;;;5257589;28;20204;-81
2021/01/15 05:40:52;;;;;;;21.53;7.83;;;-2.50;99.90;;;;;;5255666;28;20207;-85
2021/01/15 05:43:31;;;;;;;18.67;8.73;;;-2.60;99.90;;;;;;5249552;28;20209;-86
2021/01/15 05:46:08;;;;;;;17.50;8.00;;;-2.60;99.90;;;;;;5251137;28;20270;-81
2021/01/15 05:48:44;;;;;;;18.63;8.67;;;-2.60;99.90;;;;;;5253047;28;20231;-79
2021/01/15 05:51:27;;;;;;;20.63;8.47;;;-2.60;99.90;;;;;;5258428;28;20302;-83
2021/01/15 05:54:00;;;;;;;22.13;9.53;;;-2.60;99.90;;;;;;5269867;28;20209;-82
2021/01/15 05:56:46;;;;;;;20.47;8.90;;;-2.60;99.90;;;;;;5272663;28;20207;-80
2021/01/15 05:59:18;;;;;;;20.37;8.47;;;-2.60;99.90;;;;;;5264415;28;20294;-82
2021/01/15 06:02:05;;;;;;;21.50;8.50;;;-2.60;99.90;;;;;;5258527;28;20586;-79
2021/01/15 06:04:38;;;;;;;20.10;8.33;;;-2.70;99.90;;;;;;5254976;28;20230;-81
2021/01/15 06:07:10;;;;;;;17.33;8.87;;;-2.70;99.90;;;;;;5254285;28;20292;-79
2021/01/15 06:09:43;;;;;;;20.07;9.00;;;-2.80;99.90;;;;;;5256113;28;20646;-80
2021/01/15 06:12:17;;;;;;;20.10;8.73;;;-2.80;99.90;;;;;;5257855;28;20281;-81
2021/01/15 06:14:57;;;;;;;18.93;9.33;;;-2.80;99.90;;;;;;5257739;28;20672;-80
2021/01/15 06:17:30;;;;;;;24.13;9.27;;;-2.90;99.90;;;;;;5251851;28;20198;-73
2021/01/15 06:20:04;;;;;;;16.50;8.93;;;-2.90;99.90;;;;;;5251623;28;20205;-74
2021/01/15 06:22:37;;;;;;;15.63;7.90;;;-2.90;99.90;;;;;;5251734;28;20214;-76
2021/01/15 06:25:28;;;;;;;18.43;8.00;;;-2.90;99.90;;;;;;5249172;28;20214;-72
2021/01/15 06:28:02;;;;;;;19.03;8.47;;;-2.80;99.90;;;;;;5251343;28;20206;-73
2021/01/15 06:30:35;;;;;;;16.93;8.57;;;-2.80;99.90;;;;;;5250872;28;20208;-74
2021/01/15 06:33:10;;;;;;;18.23;9.43;;;-2.70;99.90;;;;;;5250250;28;20646;-73
2021/01/15 06:35:43;;;;;;;20.63;9.40;;;-2.70;99.90;;;;;;5251282;28;20234;-77
2021/01/15 06:38:20;;;;;;;20.53;9.53;;;-2.60;99.90;;;;;;5251840;28;20207;-71
2021/01/15 06:40:52;;;;;;;22.57;9.07;;;-2.60;99.90;;;;;;5251057;28;20215;-71
2021/01/15 06:43:27;;;;;;;18.80;8.33;;;-2.60;99.90;;;;;;5251350;28;20203;-77
2021/01/15 06:46:01;;;;;;;20.50;7.93;;;-2.60;99.90;;;;;;5251082;28;20213;-75
2021/01/15 06:48:38;;;;;;;13.67;7.60;;;-2.60;99.90;;;;;;5251596;28;20205;-74
2021/01/15 06:51:11;;;;;;;15.87;7.43;;;-2.60;99.90;;;;;;5251077;28;20208;-77
2021/01/15 06:53:42;;;;;;;14.80;7.30;;;-2.60;99.90;;;;;;5249912;28;20583;-76
2021/01/15 06:56:18;;;;;;;18.23;6.90;;;-2.60;99.90;;;;;;5250428;28;20211;-76
2021/01/15 06:58:57;;;;;;;11.53;5.60;;;-2.50;99.90;;;;;;5251388;28;20204;-75
2021/01/15 07:01:50;;;;;;;14.33;6.50;;;-2.40;99.90;;;;;;5248984;28;20224;-74
2021/01/15 07:04:29;;;;;;;12.50;6.67;;;-2.40;99.90;;;;;;5251170;28;20208;-76
2021/01/15 07:07:10;;;;;;;16.30;7.40;;;-2.30;99.90;;;;;;5251617;28;20292;-76
2021/01/15 07:09:43;;;;;;;17.90;8.03;;;-2.30;99.90;;;;;;5249774;28;20215;-75
2021/01/15 07:12:18;;;;;;;11.93;6.13;;;-2.20;99.90;;;;;;5251365;28;20213;-76
2021/01/15 07:14:57;;;;;;;9.27;4.10;;;-2.20;99.90;;;;;;5251446;28;20242;-76
2021/01/15 07:17:37;;;;;;;5.10;2.97;;;-2.10;99.90;;;;;;5251904;28;20238;-75
2021/01/15 07:20:08;;;;;;;6.80;2.73;;;-2.10;99.90;;;;;;5250975;28;20205;-73
2021/01/15 07:22:54;;;;;;;5.63;3.17;;;-2.00;99.90;;;;;;5251543;28;20205;-76
2021/01/15 07:25:25;;;;;;;6.17;2.67;;;-1.90;99.90;;;;;;5251062;28;20239;-74
2021/01/15 07:28:00;;;;;;;7.33;2.97;;;-1.80;99.90;;;;;;5250651;28;20207;-73
2021/01/15 07:30:32;;;;;;;8.83;3.90;;;-1.70;99.90;;;;;;5250518;28;20210;-73
2021/01/15 07:33:07;;;;;;;8.53;3.67;;;-1.70;99.90;;;;;;5250376;28;20203;-74
2021/01/15 07:35:39;;;;;;;8.53;3.67;;;-1.60;99.90;;;;;;5249881;28;20582;-73
2021/01/15 07:38:15;;;;;;;10.73;4.10;;;-1.60;99.90;;;;;;5249892;28;20665;-71
2021/01/15 07:40:46;;;;;;;9.83;3.63;;;-1.50;99.90;;;;;;5251105;28;20204;-71
2021/01/15 07:43:33;;;;;;;9.50;4.30;;;-1.40;99.90;;;;;;5249743;28;20203;-75
2021/01/15 07:46:07;;;;;;;6.70;3.50;;;-1.40;99.90;;;;;;5249552;28;20214;-75
2021/01/15 07:49:00;;;;;;;11.97;4.00;;;-1.40;99.90;;;;;;5250072;28;20261;-74
2021/01/15 07:51:32;;;;;;;6.50;3.50;;;-1.40;99.90;;;;;;5249612;28;20213;-75
2021/01/15 07:54:03;;;;;;;9.23;3.37;;;-1.40;99.90;;;;;;5249578;28;20222;-76
2021/01/15 07:56:35;;;;;;;8.60;3.57;;;-1.60;99.90;;;;;;5252632;28;20752;-77
2021/01/15 07:59:07;;;;;;;14.70;4.93;;;-1.80;99.90;;;;;;5253712;28;20210;-75
2021/01/15 08:01:43;;;;;;;6.17;3.37;;;-1.90;99.90;;;;;;5253127;28;20203;-75
2021/01/15 08:04:16;;;;;;;7.20;3.70;;;-1.90;99.90;;;;;;5251229;28;20217;-76
2021/01/15 08:06:48;;;;;;;9.57;4.17;;;-1.90;99.90;;;;;;5251948;28;20215;-74
2021/01/15 08:09:19;;;;;;;9.63;5.23;;;-1.90;99.90;;;;;;5249187;28;20217;-74
2021/01/15 08:11:58;;;;;;;8.77;4.33;;;-1.90;99.90;;;;;;5250184;28;20211;-75
2021/01/15 08:14:31;;;;;;;9.07;4.30;;;-1.90;99.90;;;;;;5251681;28;20230;-73
2021/01/15 08:17:11;;;;;;;11.93;4.23;;;-1.90;99.90;;;;;;5251210;28;20573;-75
2021/01/15 08:19:43;;;;;;;12.33;4.73;;;-1.80;99.90;;;;;;5251592;28;20236;-74
2021/01/15 08:22:15;;;;;;;10.67;5.23;;;-1.80;99.90;;;;;;5253626;28;20214;-75
2021/01/15 08:24:49;;;;;;;14.87;5.37;;;-1.70;99.90;;;;;;5251338;28;20211;-74
2021/01/15 08:27:23;;;;;;;10.83;4.50;;;-1.60;99.90;;;;;;5252514;28;20557;-74
2021/01/15 08:30:05;;;;;;;10.53;4.03;;;-1.50;99.90;;;;;;5250919;28;20209;-75
2021/01/15 08:32:42;;;;;;;7.93;4.23;;;-1.40;99.90;;;;;;5252158;28;20203;-73
2021/01/15 08:35:23;;;;;;;8.43;4.73;;;-1.40;99.90;;;;;;5252214;28;20272;-74
2021/01/15 08:38:05;;;;;;;7.40;4.00;;;-1.40;99.90;;;;;;5252074;28;20589;-76
2021/01/15 08:40:39;;;;;;;8.73;3.87;;;-1.40;99.90;;;;;;5237331;28;20213;-69
2021/01/15 08:43:11;;;;;;;8.37;4.10;;;-1.40;99.90;;;;;;5250746;28;20190;-76
2021/01/15 08:45:47;;;;;;;7.93;4.23;;;-1.20;99.90;;;;;;5250280;28;20207;-76
2021/01/15 08:48:21;;;;;;;13.27;4.87;;;-1.00;99.90;;;;;;5251083;28;20201;-75
2021/01/15 08:50:53;;;;;;;10.10;4.43;;;-1.00;99.90;;;;;;5251935;28;20294;-78
2021/01/15 08:53:43;;;;;;;9.87;3.50;;;-0.90;99.90;;;;;;5250183;28;20220;-76
2021/01/15 08:56:15;;;;;;;10.97;5.33;;;-1.10;99.90;;;;;;5251378;28;20613;-78
2021/01/15 08:58:49;;;;;;;9.30;4.87;;;-1.20;99.90;;;;;;5246417;28;20212;-78
2021/01/15 09:01:35;;;;;;;7.73;4.20;;;-1.20;99.90;;;;;;5252201;28;20218;-79
2021/01/15 09:04:11;;;;;;;6.20;3.60;;;-1.30;99.90;;;;;;5237651;28;20214;-77
2021/01/15 09:06:44;;;;;;;6.90;3.87;;;-1.30;99.90;;;;;;5246005;28;20202;-79
2021/01/15 09:09:20;;;;;;;5.83;3.40;;;-1.40;99.90;;;;;;5249489;28;20210;-77
2021/01/15 09:11:52;;;;;;;6.87;4.07;;;-1.40;99.90;;;;;;5249638;28;20200;-80
2021/01/15 09:14:24;;;;;;;6.97;3.80;;;-1.40;99.90;;;;;;5251323;28;20236;-78
2021/01/15 09:16:56;;;;;;;6.60;3.60;;;-1.50;99.90;;;;;;5250361;28;20283;-77
2021/01/15 09:19:28;;;;;;;9.77;4.00;;;-1.50;99.90;;;;;;5249261;28;20209;-80
2021/01/15 09:22:09;;;;;;;8.93;4.10;;;-1.50;99.90;;;;;;5239563;28;20569;-80
2021/01/15 09:24:40;;;;;;;9.57;4.40;;;-1.50;99.90;;;;;;5252363;28;20294;-78
2021/01/15 09:27:12;;;;;;;9.40;4.50;;;-1.40;99.90;;;;;;5259010;28;20197;-78
2021/01/15 09:29:43;;;;;;;9.63;4.57;;;-1.30;99.90;;;;;;5260312;28;20204;-79
2021/01/15 09:32:17;;;;;;;7.63;3.80;;;-1.20;99.90;;;;;;5256425;28;20199;-77
2021/01/15 09:34:48;;;;;;;10.27;5.27;;;-1.10;99.90;;;;;;5254640;28;20617;-79
2021/01/15 09:37:21;;;;;;;10.60;5.33;;;-1.20;99.90;;;;;;5256489;28;20559;-79
2021/01/15 09:39:52;;;;;;;10.73;5.10;;;-1.10;99.90;;;;;;5254432;28;20782;-80
2021/01/15 09:42:24;;;;;;;11.20;5.53;;;-1.00;99.90;;;;;;5254449;28;20205;-79
2021/01/15 09:44:55;;;;;;;13.33;5.00;;;-0.90;99.90;;;;;;5253241;28;20211;-79
2021/01/15 09:47:30;;;;;;;11.90;4.87;;;-0.90;99.90;;;;;;5253073;28;20217;-79
2021/01/15 09:50:03;;;;;;;11.60;5.00;;;-0.90;99.90;;;;;;5253028;28;20222;-80
2021/01/15 09:52:41;;;;;;;14.47;5.67;;;-1.10;99.90;;;;;;5254067;28;20199;-80
2021/01/15 09:55:14;;;;;;;18.20;5.53;;;-1.20;99.90;;;;;;5255558;28;20219;-79
2021/01/15 09:57:48;;;;;;;11.63;4.87;;;-1.30;99.90;;;;;;5255390;28;20209;-79
2021/01/15 10:00:20;;;;;;;9.43;4.87;;;-1.40;99.90;;;;;;5255976;28;20204;-78
2021/01/15 10:02:52;;;;;;;14.53;6.20;;;-1.40;99.90;;;;;;5256979;28;20185;-75
2021/01/15 10:05:24;;;;;;;12.83;5.67;;;-1.40;99.90;;;;;;5244795;28;20522;-78
2021/01/15 10:07:55;;;;;;;9.73;5.40;;;-1.30;99.90;;;;;;5259301;28;20216;-78
2021/01/15 10:10:28;;;;;;;10.33;4.97;;;-1.20;99.90;;;;;;5253727;28;20246;-80
2021/01/15 10:12:59;;;;;;;7.13;4.03;;;-1.00;99.90;;;;;;5256519;28;20202;-82
2021/01/15 10:15:31;;;;;;;8.53;4.10;;;-0.90;99.90;;;;;;5254465;28;20245;-81
2021/01/15 10:18:02;;;;;;;8.03;3.77;;;-0.80;99.90;;;;;;5258406;28;20204;-78
2021/01/15 10:20:34;;;;;;;8.37;3.37;;;-0.80;99.90;;;;;;5255901;28;20210;-77
2021/01/15 10:23:05;;;;;;;5.83;3.00;;;-0.80;99.90;;;;;;5251429;28;20214;-80
2021/01/15 10:25:37;;;;;;;5.40;2.83;;;-0.90;99.90;;;;;;5258283;28;20642;-81
2021/01/15 10:28:08;;;;;;;6.73;3.50;;;-1.00;99.90;;;;;;5252004;28;20197;-83
2021/01/15 10:30:43;;;;;;;6.50;3.50;;;-1.10;99.90;;;;;;5251590;28;20204;-82
2021/01/15 10:33:15;;;;;;;8.13;3.63;;;-1.30;99.90;;;;;;5251598;28;20294;-79
2021/01/15 10:35:47;;;;;;;11.30;3.77;;;-1.40;99.90;;;;;;5250522;28;20200;-76
2021/01/15 10:38:20;;;;;;;7.90;4.03;;;-1.50;99.90;;;;;;5249853;28;20265;-78
2021/01/15 10:40:52;;;;;;;9.47;5.17;;;-1.50;99.90;;;;;;5251555;28;20206;-80
2021/01/15 10:43:23;;;;;;;8.87;5.13;;;-1.50;99.90;;;;;;5250161;28;20219;-82
2021/01/15 10:45:55;;;;;;;14.83;5.73;;;-1.50;99.90;;;;;;5251124;28;20211;-81
2021/01/15 10:48:26;;;;;;;11.27;5.30;;;-1.50;99.90;;;;;;5263557;28;20195;-78
2021/01/15 10:50:58;;;;;;;14.90;5.47;;;-1.60;99.90;;;;;;5261601;28;20644;-83
2021/01/15 10:53:30;;;;;;;10.63;5.07;;;-1.60;99.90;;;;;;5250760;28;20262;-79
2021/01/15 10:56:01;;;;;;;9.17;5.23;;;-1.70;99.90;;;;;;5250463;28;20215;-81
2021/01/15 10:58:33;;;;;;;10.30;4.90;;;-1.70;99.90;;;;;;5250058;28;20300;-80
2021/01/15 11:01:05;;;;;;;11.73;4.70;;;-1.80;99.90;;;;;;5250939;28;20284;-81
2021/01/15 11:03:36;;;;;;;9.10;4.47;;;-1.70;99.90;;;;;;5251246;28;20201;-81
2021/01/15 11:06:09;;;;;;;12.00;5.03;;;-1.70;99.90;;;;;;5256828;28;20594;-79
2021/01/15 11:08:40;;;;;;;10.87;4.83;;;-1.60;99.90;;;;;;5268163;28;20192;-79
2021/01/15 11:11:12;;;;;;;10.20;4.60;;;-1.60;99.90;;;;;;5251469;28;20246;-79
2021/01/15 11:13:44;;;;;;;11.53;4.97;;;-1.60;99.90;;;;;;5252636;28;20213;-80
2021/01/15 11:16:17;;;;;;;10.07;4.90;;;-1.50;99.90;;;;;;5250843;28;20210;-80
2021/01/15 11:18:48;;;;;;;11.00;4.77;;;-1.50;99.90;;;;;;5235225;28;20195;-78
2021/01/15 11:21:27;;;;;;;8.53;4.67;;;-1.50;99.90;;;;;;5251207;28;20526;-77
2021/01/15 11:23:58;;;;;;;13.63;4.67;;;-1.60;99.90;;;;;;5250196;28;20206;-83
2021/01/15 11:26:31;;;;;;;7.83;4.57;;;-1.60;99.90;;;;;;5248930;28;20198;-77
2021/01/15 11:29:08;;;;;;;11.80;4.60;;;-1.60;99.90;;;;;;5240910;28;20211;-81
2021/01/15 11:31:41;;;;;;;10.30;4.87;;;-1.70;99.90;;;;;;5250520;28;20188;-79
2021/01/15 11:34:16;;;;;;;9.60;4.20;;;-1.70;99.90;;;;;;5255480;28;20226;-78
2021/01/15 11:36:49;;;;;;;10.50;4.63;;;-1.80;99.90;;;;;;5248426;28;20210;-83
2021/01/15 11:39:21;;;;;;;11.47;4.87;;;-1.80;99.90;;;;;;5251164;28;20257;-81
2021/01/15 11:41:54;;;;;;;12.63;5.50;;;-1.80;99.90;;;;;;5250242;28;20324;-79
2021/01/15 11:44:25;;;;;;;9.50;4.73;;;-1.80;99.90;;;;;;5249283;28;20277;-76
2021/01/15 11:46:57;;;;;;;9.67;5.20;;;-1.70;99.90;;;;;;5248817;28;20623;-80
2021/01/15 11:49:34;;;;;;;12.40;4.87;;;-1.80;99.90;;;;;;5247833;28;20573;-81
2021/01/15 11:52:07;;;;;;;9.93;4.87;;;-1.80;99.90;;;;;;5251050;28;20207;-82
2021/01/15 11:54:39;;;;;;;8.93;4.07;;;-1.90;99.90;;;;;;5249951;28;20303;-79
2021/01/15 11:57:10;;;;;;;11.07;4.80;;;-1.90;99.90;;;;;;5249881;28;20239;-82
2021/01/15 11:59:42;;;;;;;7.93;4.40;;;-1.90;99.90;;;;;;5253019;28;20211;-82
2021/01/15 12:02:16;;;;;;;11.57;5.03;;;-1.90;99.90;;;;;;5251731;28;20186;-81
2021/01/15 12:04:48;;;;;;;9.57;5.27;;;-1.90;99.90;;;;;;5251923;28;20555;-69
2021/01/15 12:07:19;;;;;;;9.73;4.77;;;-1.80;99.90;;;;;;5251815;28;20187;-76
2021/01/15 12:09:51;;;;;;;11.00;5.67;;;-1.80;99.90;;;;;;5249347;28;20212;-80
2021/01/15 12:12:22;;;;;;;9.10;4.67;;;-1.80;99.90;;;;;;5249394;28;20213;-77
2021/01/15 12:14:54;;;;;;;9.53;4.67;;;-1.80;99.90;;;;;;5248787;28;20250;-75
2021/01/15 12:17:25;;;;;;;9.50;4.33;;;-1.90;99.90;;;;;;5250303;28;20208;-80
2021/01/15 12:19:57;;;;;;;11.70;4.97;;;-1.90;99.90;;;;;;5248166;28;20216;-78
2021/01/15 12:22:29;;;;;;;10.10;5.20;;;-1.90;99.90;;;;;;5248892;28;20194;-77
2021/01/15 12:25:00;;;;;;;11.13;4.40;;;-2.00;99.90;;;;;;5248125;28;20204;-78
2021/01/15 12:27:32;;;;;;;9.57;4.90;;;-2.00;99.90;;;;;;5248170;28;20242;-76
2021/01/15 12:30:09;;;;;;;10.57;5.00;;;-2.00;99.90;;;;;;5248258;28;20201;-76
2021/01/15 12:32:43;;;;;;;9.53;4.80;;;-2.00;99.90;;;;;;5250570;28;20214;-79
2021/01/15 12:35:14;;;;;;;10.80;4.37;;;-1.90;99.90;;;;;;5249216;28;20227;-76
2021/01/15 12:37:46;;;;;;;10.77;4.40;;;-1.90;99.90;;;;;;5234423;28;20222;-80
2021/01/15 12:40:18;;;;;;;8.60;3.97;;;-2.00;99.90;;;;;;5251220;28;20271;-78
2021/01/15 12:42:53;;;;;;;9.20;4.57;;;-2.00;99.90;;;;;;5253092;28;20202;-78
2021/01/15 12:45:25;;;;;;;12.67;5.10;;;-2.10;99.90;;;;;;5250147;28;20775;-81
2021/01/15 12:47:57;;;;;;;7.73;4.00;;;-2.10;99.90;;;;;;5249193;28;20248;-77
2021/01/15 12:50:29;;;;;;;10.47;4.67;;;-2.10;99.90;;;;;;5248575;28;20190;-82
2021/01/15 12:53:00;;;;;;;10.97;4.37;;;-2.10;99.90;;;;;;5247907;28;20202;-79
2021/01/15 12:55:32;;;;;;;10.97;4.50;;;-2.00;99.90;;;;;;5247338;28;20282;-77
2021/01/15 12:58:04;;;;;;;9.50;3.87;;;-2.00;99.90;;;;;;5230435;28;20285;-77
2021/01/15 13:00:35;;;;;;;9.60;4.70;;;-1.90;99.90;;;;;;5230749;28;20525;-78
2021/01/15 13:03:07;;;;;;;9.10;3.90;;;-1.80;99.90;;;;;;5242895;28;20202;-75
2021/01/15 13:05:38;;;;;;;8.13;3.70;;;-1.60;99.90;;;;;;5245997;28;20638;-79
2021/01/15 13:08:11;;;;;;;10.40;4.57;;;-1.60;99.90;;;;;;5231515;28;20191;-78
2021/01/15 13:10:47;;;;;;;10.13;3.90;;;-1.60;99.90;;;;;;5248118;28;20206;-79
2021/01/15 13:13:19;;;;;;;8.40;3.57;;;-1.70;99.90;;;;;;5230794;28;20196;-78